Time;durP1;ratioP1;P1;durP2;ratioP2;P2;SDS_P1;SDS_P2;PMS_P1;PMS_P2;Temp;Humidity;BMP_temperature;BMP_pressure;BME280_temperature;BME280_humidity;BME280_pressure;Samples;Min_cycle;Max_cycle;Signal;HPM_P1;HPM_P2
2023/05/27 00:02:07;;;;;;;14.25;5.13;;;8.80;82.60;;;;;;5038214;28;20103;-77
2023/05/27 00:04:33;;;;;;;18.65;4.95;;;8.70;82.60;;;;;;5038345;28;20043;-76
2023/05/27 00:06:58;;;;;;;23.25;5.90;;;8.70;82.70;;;;;;5037928;28;20400;-81
2023/05/27 00:09:25;;;;;;;14.75;5.60;;;8.70;82.80;;;;;;5021332;28;20048;-77
2023/05/27 00:11:50;;;;;;;14.23;5.45;;;8.70;82.90;;;;;;5037914;28;20107;-77
2023/05/27 00:14:17;;;;;;;16.30;5.95;;;8.70;83.30;;;;;;5034318;28;20034;-77
2023/05/27 00:16:43;;;;;;;16.10;5.47;;;8.60;82.70;;;;;;5018210;28;20038;-80
2023/05/27 00:19:08;;;;;;;14.98;6.68;;;8.60;82.70;;;;;;5034336;28;20500;-77
2023/05/27 00:21:34;;;;;;;13.50;5.93;;;8.60;83.20;;;;;;5017960;28;20034;-78
2023/05/27 00:24:00;;;;;;;14.73;5.03;;;8.50;83.50;;;;;;5034359;28;20044;-79
2023/05/27 00:26:26;;;;;;;15.50;5.22;;;8.50;83.50;;;;;;5034243;28;20116;-77
2023/05/27 00:28:52;;;;;;;22.48;6.25;;;8.50;83.50;;;;;;5017623;28;20046;-77
2023/05/27 00:31:18;;;;;;;17.17;6.30;;;8.50;83.70;;;;;;5049115;28;20098;-79
2023/05/27 00:33:44;;;;;;;18.33;5.88;;;8.40;83.70;;;;;;5037369;28;20037;-77
2023/05/27 00:36:10;;;;;;;14.70;5.22;;;8.40;83.90;;;;;;5021125;28;20052;-77
2023/05/27 00:38:36;;;;;;;16.77;5.82;;;8.40;84.10;;;;;;5037491;28;20072;-80
2023/05/27 00:41:03;;;;;;;15.50;5.90;;;8.40;84.30;;;;;;5037371;28;20558;-78
2023/05/27 00:43:33;;;;;;;12.18;4.80;;;8.40;84.30;;;;;;5021064;28;20037;-77
2023/05/27 00:45:58;;;;;;;16.48;6.88;;;8.30;84.30;;;;;;5029816;28;20033;-79
2023/05/27 00:48:24;;;;;;;18.23;5.72;;;8.40;84.40;;;;;;5001150;28;20043;-78
2023/05/27 00:50:50;;;;;;;16.33;5.82;;;8.30;84.40;;;;;;5001419;28;20403;-77
2023/05/27 00:53:17;;;;;;;19.73;6.60;;;8.30;84.50;;;;;;5017096;28;20038;-78
2023/05/27 00:55:43;;;;;;;14.40;5.07;;;8.30;84.50;;;;;;5017361;28;20037;-79
2023/05/27 00:58:09;;;;;;;13.27;5.90;;;8.20;84.50;;;;;;5017039;28;20092;-77
2023/05/27 01:00:38;;;;;;;14.52;5.50;;;8.30;84.50;;;;;;5016922;28;20103;-79
2023/05/27 01:03:07;;;;;;;16.85;6.35;;;8.20;84.50;;;;;;5033914;28;20106;-78
2023/05/27 01:05:33;;;;;;;12.75;5.25;;;8.30;84.50;;;;;;5037064;28;20139;-79
2023/05/27 01:08:22;;;;;;;15.68;6.60;;;8.20;84.80;;;;;;5020345;28;20120;-81
2023/05/27 01:10:53;;;;;;;16.77;5.95;;;8.30;84.60;;;;;;5036921;28;20420;-78
2023/05/27 01:13:40;;;;;;;19.85;5.72;;;8.30;84.70;;;;;;5036631;28;20052;-79
2023/05/27 01:16:15;;;;;;;19.00;5.82;;;8.20;84.70;;;;;;5019952;28;20047;-77
2023/05/27 01:18:44;;;;;;;17.48;5.88;;;8.20;84.70;;;;;;5036705;28;20120;-78
2023/05/27 01:21:16;;;;;;;11.07;6.07;;;8.30;85.00;;;;;;5036568;28;20045;-80
2023/05/27 01:23:43;;;;;;;16.38;5.90;;;8.30;85.00;;;;;;5019904;28;20043;-78
2023/05/27 01:26:09;;;;;;;19.00;6.22;;;8.20;85.00;;;;;;5036204;28;20051;-77
2023/05/27 01:28:35;;;;;;;17.52;5.70;;;8.20;85.10;;;;;;5036501;28;20131;-78
2023/05/27 01:31:09;;;;;;;11.10;5.70;;;8.20;84.90;;;;;;5036425;28;20051;-78
2023/05/27 01:33:39;;;;;;;13.15;4.95;;;8.20;85.00;;;;;;5036166;28;20052;-79
2023/05/27 01:36:17;;;;;;;16.10;5.57;;;8.10;85.30;;;;;;5024092;28;20072;-77
2023/05/27 01:38:45;;;;;;;13.32;5.35;;;8.20;85.20;;;;;;5016582;28;20041;-78
2023/05/27 01:41:14;;;;;;;14.93;5.57;;;8.10;85.20;;;;;;5016570;28;20394;-82
2023/05/27 01:43:40;;;;;;;9.45;4.82;;;8.10;85.20;;;;;;5015993;28;20041;-79
2023/05/27 01:46:06;;;;;;;11.73;4.75;;;8.10;85.20;;;;;;5016361;28;20037;-77
2023/05/27 01:48:32;;;;;;;16.35;5.40;;;8.10;85.20;;;;;;5015745;28;20400;-78
2023/05/27 01:50:57;;;;;;;14.48;5.28;;;8.10;85.20;;;;;;5015747;28;20049;-79
2023/05/27 01:53:23;;;;;;;18.50;5.45;;;8.10;85.20;;;;;;5028968;28;20079;-78
2023/05/27 01:55:49;;;;;;;12.38;4.88;;;8.10;85.20;;;;;;5035664;28;20396;-78
2023/05/27 01:58:15;;;;;;;13.50;4.85;;;8.10;85.20;;;;;;5035183;28;20131;-78
2023/05/27 02:00:41;;;;;;;13.57;5.72;;;8.10;85.50;;;;;;5019368;28;20037;-78
2023/05/27 02:03:06;;;;;;;15.45;4.93;;;8.10;85.10;;;;;;5035576;28;20071;-81
2023/05/27 02:05:32;;;;;;;14.73;4.85;;;8.10;84.90;;;;;;5019221;28;20041;-78
2023/05/27 02:07:58;;;;;;;14.27;5.07;;;8.10;84.80;;;;;;5035377;28;20050;-76
2023/05/27 02:10:24;;;;;;;12.00;5.13;;;8.10;85.20;;;;;;5035680;28;20041;-78
2023/05/27 02:12:49;;;;;;;12.88;4.70;;;8.10;85.60;;;;;;5035487;28;20564;-79
2023/05/27 02:15:15;;;;;;;12.52;5.47;;;8.10;86.00;;;;;;5035677;28;20377;-78
2023/05/27 02:17:44;;;;;;;18.55;4.95;;;8.10;86.00;;;;;;5035518;28;20520;-77
2023/05/27 02:20:11;;;;;;;14.63;4.68;;;8.10;86.00;;;;;;5019513;28;20382;-79
2023/05/27 02:22:36;;;;;;;14.48;4.53;;;8.10;86.10;;;;;;5035618;28;20049;-80
2023/05/27 02:25:02;;;;;;;15.02;5.80;;;8.10;86.10;;;;;;5035499;28;20099;-80
2023/05/27 02:27:28;;;;;;;11.20;5.20;;;8.00;86.20;;;;;;5034716;28;20076;-78
2023/05/27 02:29:53;;;;;;;12.50;5.43;;;8.00;86.10;;;;;;5035434;28;20231;-80
2023/05/27 02:32:19;;;;;;;14.13;5.35;;;8.00;86.30;;;;;;5035472;28;20044;-77
2023/05/27 02:34:45;;;;;;;14.57;6.63;;;8.00;86.30;;;;;;5019022;28;20128;-79
2023/05/27 02:37:11;;;;;;;12.05;4.68;;;7.90;86.40;;;;;;5019008;28;20378;-80
2023/05/27 02:39:36;;;;;;;14.00;4.85;;;7.90;86.50;;;;;;5019170;28;20043;-79
2023/05/27 02:42:02;;;;;;;15.18;4.95;;;7.90;86.40;;;;;;5035675;28;20041;-78
2023/05/27 02:44:28;;;;;;;15.70;4.82;;;7.80;86.40;;;;;;5035040;28;20568;-79
2023/05/27 02:46:53;;;;;;;16.08;4.47;;;7.90;86.40;;;;;;5002563;28;20037;-78
2023/05/27 02:49:19;;;;;;;17.80;5.00;;;7.90;86.40;;;;;;5018910;28;20142;-81
2023/05/27 02:51:45;;;;;;;12.95;5.82;;;7.90;86.50;;;;;;5035756;28;20083;-78
2023/05/27 02:54:10;;;;;;;13.68;5.32;;;7.90;86.50;;;;;;5002354;28;20477;-80
2023/05/27 02:56:36;;;;;;;13.25;5.40;;;7.90;86.60;;;;;;5035017;28;20432;-80
2023/05/27 02:59:02;;;;;;;16.20;5.28;;;7.90;86.60;;;;;;5002239;28;20401;-79
2023/05/27 03:01:27;;;;;;;14.27;4.70;;;7.90;86.50;;;;;;5033188;28;20033;-78
2023/05/27 03:03:53;;;;;;;13.13;5.57;;;7.80;86.60;;;;;;4999426;28;20496;-79
2023/05/27 03:06:19;;;;;;;15.32;5.43;;;7.80;86.70;;;;;;5015528;28;20545;-82
2023/05/27 03:08:45;;;;;;;16.48;5.32;;;7.80;86.70;;;;;;5033598;28;20493;-77
2023/05/27 03:11:11;;;;;;;16.25;5.05;;;7.80;86.70;;;;;;5019212;28;20045;-78
2023/05/27 03:13:37;;;;;;;14.00;5.13;;;7.90;87.00;;;;;;5035521;28;20077;-80
2023/05/27 03:16:03;;;;;;;15.07;4.18;;;7.80;87.00;;;;;;5018675;28;20141;-79
2023/05/27 03:18:28;;;;;;;15.40;4.88;;;7.90;87.10;;;;;;5001915;28;20048;-78
2023/05/27 03:20:54;;;;;;;14.40;4.72;;;7.90;87.10;;;;;;5016707;28;20048;-77
2023/05/27 03:23:20;;;;;;;18.10;4.45;;;7.90;86.90;;;;;;5038137;28;20084;-80
2023/05/27 03:25:46;;;;;;;14.38;4.88;;;7.90;86.90;;;;;;5021614;28;20405;-78
2023/05/27 03:28:11;;;;;;;14.18;4.53;;;7.90;86.90;;;;;;5054902;28;20091;-79
2023/05/27 03:30:38;;;;;;;14.95;5.28;;;7.90;87.00;;;;;;5005971;28;20045;-78
2023/05/27 03:33:03;;;;;;;12.25;4.00;;;7.80;86.90;;;;;;5055325;28;20419;-78
2023/05/27 03:35:29;;;;;;;12.45;4.50;;;7.80;86.80;;;;;;5055081;28;20178;-79
2023/05/27 03:37:55;;;;;;;16.55;5.00;;;7.80;86.70;;;;;;4991719;28;20481;-78
2023/05/27 03:40:20;;;;;;;13.80;4.60;;;7.80;86.90;;;;;;5018952;28;20509;-78
2023/05/27 03:42:46;;;;;;;11.50;4.15;;;7.80;86.90;;;;;;5018225;28;20503;-79
2023/05/27 03:45:12;;;;;;;14.93;4.28;;;7.70;87.00;;;;;;5034949;28;20116;-77
2023/05/27 03:47:38;;;;;;;8.23;3.67;;;7.70;87.00;;;;;;5002430;28;20115;-78
2023/05/27 03:50:04;;;;;;;13.18;4.25;;;7.70;87.20;;;;;;5018186;28;20485;-78
2023/05/27 03:52:29;;;;;;;13.25;5.05;;;7.70;87.10;;;;;;5018011;28;20124;-77
2023/05/27 03:54:55;;;;;;;10.88;4.20;;;7.70;87.40;;;;;;5018157;28;20037;-77
2023/05/27 03:57:20;;;;;;;16.83;4.45;;;7.70;87.50;;;;;;5018190;28;20060;-78
2023/05/27 03:59:46;;;;;;;13.93;4.97;;;7.70;87.50;;;;;;5018071;28;20375;-77
2023/05/27 04:02:12;;;;;;;11.30;4.03;;;7.80;87.10;;;;;;5001728;28;20059;-78
2023/05/27 04:04:37;;;;;;;11.57;4.30;;;7.70;87.30;;;;;;5024388;28;20059;-80
2023/05/27 04:07:03;;;;;;;15.02;4.80;;;7.70;87.30;;;;;;5037957;28;20401;-78
2023/05/27 04:09:29;;;;;;;11.90;4.63;;;7.70;87.40;;;;;;5021445;28;20044;-79
2023/05/27 04:11:55;;;;;;;11.85;4.28;;;7.60;87.50;;;;;;5037819;28;20052;-77
2023/05/27 04:14:21;;;;;;;11.88;4.75;;;7.70;87.70;;;;;;5021158;28;20045;-77
2023/05/27 04:16:46;;;;;;;14.93;4.93;;;7.70;88.20;;;;;;5054558;28;20123;-79
2023/05/27 04:19:13;;;;;;;14.93;5.38;;;7.80;88.40;;;;;;5037746;28;20041;-78
2023/05/27 04:21:39;;;;;;;12.13;4.60;;;7.80;88.40;;;;;;5033040;28;20080;-77
2023/05/27 04:24:05;;;;;;;12.20;4.70;;;7.80;88.50;;;;;;5017728;28;20508;-78
2023/05/27 04:26:32;;;;;;;14.02;4.82;;;7.90;88.30;;;;;;5017535;28;20091;-79
2023/05/27 04:28:59;;;;;;;17.10;4.60;;;8.00;88.60;;;;;;5017763;28;20100;-79
2023/05/27 04:31:28;;;;;;;14.38;5.35;;;8.10;88.70;;;;;;5017373;28;20053;-78
2023/05/27 04:33:54;;;;;;;15.60;4.90;;;8.20;88.30;;;;;;5017219;28;20041;-80
2023/05/27 04:36:24;;;;;;;14.77;4.53;;;8.20;88.50;;;;;;5017647;28;20043;-78
2023/05/27 04:38:51;;;;;;;14.20;4.70;;;8.30;88.60;;;;;;5016980;28;20048;-79
2023/05/27 04:41:16;;;;;;;11.57;4.72;;;8.30;88.40;;;;;;5017735;28;20041;-78
2023/05/27 04:43:42;;;;;;;13.32;5.43;;;8.40;88.50;;;;;;5017466;28;20072;-78
2023/05/27 04:46:08;;;;;;;10.85;4.40;;;8.40;88.70;;;;;;5017230;28;20044;-79
2023/05/27 04:48:35;;;;;;;12.65;4.88;;;8.50;88.50;;;;;;5000873;28;20041;-78
2023/05/27 04:51:01;;;;;;;15.40;4.80;;;8.60;88.50;;;;;;5000707;28;20103;-79
2023/05/27 04:53:26;;;;;;;19.25;5.13;;;8.60;88.20;;;;;;5016710;28;20038;-77
2023/05/27 04:55:52;;;;;;;16.42;4.38;;;8.70;88.40;;;;;;5016991;28;20120;-79
2023/05/27 04:58:18;;;;;;;12.32;5.20;;;8.80;88.40;;;;;;5016953;28;20045;-78
2023/05/27 05:00:49;;;;;;;13.23;5.13;;;8.80;88.60;;;;;;5000746;28;20041;-79
2023/05/27 05:03:26;;;;;;;15.52;6.10;;;8.80;88.90;;;;;;5017409;28;20045;-79
2023/05/27 05:05:52;;;;;;;17.45;5.65;;;9.00;88.80;;;;;;5002732;28;20099;-78
2023/05/27 05:08:19;;;;;;;15.50;5.50;;;9.10;88.70;;;;;;5017527;28;20041;-80
2023/05/27 05:10:49;;;;;;;18.75;5.43;;;9.10;88.60;;;;;;5000757;28;20060;-79
2023/05/27 05:13:15;;;;;;;16.67;5.07;;;9.20;88.80;;;;;;5028558;28;20075;-78
2023/05/27 05:15:43;;;;;;;23.25;6.70;;;9.20;88.50;;;;;;5020097;28;20166;-79
2023/05/27 05:18:12;;;;;;;20.75;6.00;;;9.30;88.50;;;;;;5020360;28;20041;-78
2023/05/27 05:20:38;;;;;;;11.30;5.00;;;9.30;88.90;;;;;;5036782;28;20040;-78
2023/05/27 05:23:04;;;;;;;15.00;5.63;;;9.40;88.90;;;;;;5036741;28;20041;-79
2023/05/27 05:25:30;;;;;;;22.20;5.30;;;9.50;88.90;;;;;;5020143;28;20079;-78
2023/05/27 05:27:56;;;;;;;16.20;5.63;;;9.60;88.80;;;;;;5052710;28;20055;-79
2023/05/27 05:30:22;;;;;;;12.82;5.05;;;9.70;88.50;;;;;;5036580;28;20488;-79
2023/05/27 05:32:48;;;;;;;18.48;5.32;;;9.70;88.80;;;;;;5036186;28;20049;-78
2023/05/27 05:35:14;;;;;;;17.80;6.43;;;9.80;88.60;;;;;;5036495;28;20193;-79
2023/05/27 05:37:39;;;;;;;13.75;5.80;;;9.90;88.60;;;;;;5036410;28;20086;-78
2023/05/27 05:40:06;;;;;;;14.40;5.47;;;9.90;88.30;;;;;;5036427;28;20501;-83
2023/05/27 05:42:31;;;;;;;18.95;6.15;;;10.00;88.40;;;;;;5052639;28;20424;-80
2023/05/27 05:44:57;;;;;;;14.45;5.47;;;10.00;87.60;;;;;;5035998;28;20040;-81
2023/05/27 05:47:23;;;;;;;11.38;4.45;;;10.00;87.50;;;;;;5019898;28;20555;-80
2023/05/27 05:49:48;;;;;;;14.93;5.63;;;10.10;87.20;;;;;;5036251;28;20044;-78
2023/05/27 05:52:14;;;;;;;17.83;5.63;;;10.20;86.90;;;;;;5035865;28;20037;-77
2023/05/27 05:54:40;;;;;;;24.60;6.60;;;10.30;86.80;;;;;;5036007;28;20041;-79
2023/05/27 05:57:06;;;;;;;12.82;5.38;;;10.40;86.80;;;;;;5036026;28;20052;-78
2023/05/27 05:59:31;;;;;;;17.63;5.10;;;10.50;86.50;;;;;;5036041;28;20087;-79
2023/05/27 06:01:57;;;;;;;16.65;5.13;;;10.50;86.30;;;;;;5035935;28;20041;-79
2023/05/27 06:04:23;;;;;;;20.45;5.40;;;10.60;86.30;;;;;;5035964;28;20401;-79
2023/05/27 06:06:49;;;;;;;15.27;5.20;;;10.70;86.00;;;;;;5036095;28;20041;-77
2023/05/27 06:09:15;;;;;;;16.10;5.78;;;10.70;85.80;;;;;;5035920;28;20370;-79
2023/05/27 06:11:40;;;;;;;16.13;5.53;;;10.80;85.50;;;;;;5035640;28;20072;-77
2023/05/27 06:14:07;;;;;;;17.50;6.45;;;10.90;85.30;;;;;;5019135;28;20405;-80
2023/05/27 06:16:35;;;;;;;13.80;5.43;;;10.90;85.10;;;;;;5035900;28;20041;-79
2023/05/27 06:19:01;;;;;;;16.65;5.47;;;11.00;85.00;;;;;;5052334;28;20037;-80
2023/05/27 06:21:29;;;;;;;20.90;5.72;;;11.00;84.90;;;;;;5036133;28;20118;-80
2023/05/27 06:23:55;;;;;;;16.25;5.72;;;11.00;84.60;;;;;;5035702;28;20055;-81
2023/05/27 06:26:21;;;;;;;17.80;5.57;;;11.10;84.60;;;;;;5036223;28;20124;-79
2023/05/27 06:28:46;;;;;;;18.50;5.53;;;11.20;84.40;;;;;;5035927;28;20037;-80
2023/05/27 06:31:12;;;;;;;16.65;5.72;;;11.30;84.00;;;;;;5019125;28;20052;-79
2023/05/27 06:33:38;;;;;;;17.05;5.47;;;11.40;83.80;;;;;;5034763;28;20037;-79
2023/05/27 06:36:04;;;;;;;16.60;5.65;;;11.50;83.70;;;;;;5035787;28;20075;-78
2023/05/27 06:38:29;;;;;;;18.67;5.90;;;11.50;82.90;;;;;;5019920;28;20041;-78
2023/05/27 06:40:55;;;;;;;12.60;4.45;;;11.60;82.90;;;;;;5052440;28;20045;-79
2023/05/27 06:43:21;;;;;;;15.48;4.45;;;11.60;82.50;;;;;;5020056;28;20041;-78
2023/05/27 06:45:47;;;;;;;17.38;5.40;;;11.70;82.20;;;;;;5039561;28;20045;-79
2023/05/27 06:48:12;;;;;;;18.90;5.30;;;11.80;82.50;;;;;;5023365;28;20047;-79
2023/05/27 06:50:38;;;;;;;14.90;4.20;;;11.80;82.10;;;;;;5023406;28;20485;-80
2023/05/27 06:53:04;;;;;;;14.80;5.25;;;12.00;82.10;;;;;;5019787;28;20037;-80
2023/05/27 06:55:30;;;;;;;19.10;5.18;;;12.00;81.10;;;;;;5003251;28;20077;-81
2023/05/27 06:57:56;;;;;;;12.40;4.38;;;12.00;80.60;;;;;;5019514;28;20398;-79
2023/05/27 07:00:21;;;;;;;16.15;5.63;;;12.00;80.00;;;;;;5003069;28;20049;-80
2023/05/27 07:02:47;;;;;;;16.00;5.05;;;12.00;80.40;;;;;;5019391;28;20409;-80
2023/05/27 07:05:13;;;;;;;16.60;4.97;;;12.00;79.70;;;;;;5019545;28;20136;-78
2023/05/27 07:07:39;;;;;;;15.88;4.88;;;12.10;79.90;;;;;;5002824;28;20494;-79
2023/05/27 07:10:05;;;;;;;18.33;5.68;;;12.10;80.40;;;;;;5020016;28;20045;-81
2023/05/27 07:12:30;;;;;;;16.63;5.15;;;12.20;80.00;;;;;;5019596;28;20041;-80
2023/05/27 07:14:56;;;;;;;17.88;4.57;;;12.30;79.20;;;;;;5019369;28;20406;-81
2023/05/27 07:17:22;;;;;;;16.23;4.53;;;12.40;79.60;;;;;;5020882;28;20037;-80
2023/05/27 07:19:47;;;;;;;12.70;5.85;;;12.40;79.10;;;;;;5021069;28;20080;-78
2023/05/27 07:22:13;;;;;;;17.63;6.05;;;12.40;79.20;;;;;;5038056;28;20029;-81
2023/05/27 07:24:39;;;;;;;11.80;5.43;;;12.40;78.90;;;;;;5062537;28;20036;-79
2023/05/27 07:27:06;;;;;;;16.83;5.70;;;12.50;79.00;;;;;;5064969;28;20075;-78
2023/05/27 07:29:32;;;;;;;10.88;4.25;;;12.50;79.10;;;;;;5048650;28;20056;-79
2023/05/27 07:31:58;;;;;;;14.15;5.15;;;12.40;78.70;;;;;;5048418;28;20045;-79
2023/05/27 07:34:24;;;;;;;17.00;4.55;;;12.50;79.00;;;;;;5064146;28;20049;-78
2023/05/27 07:36:50;;;;;;;17.05;5.30;;;12.60;79.00;;;;;;5013831;28;20048;-82
2023/05/27 07:39:15;;;;;;;14.77;4.70;;;12.70;78.80;;;;;;5076086;28;20108;-79
2023/05/27 07:41:41;;;;;;;15.85;5.30;;;12.80;77.10;;;;;;5035688;28;20044;-79
2023/05/27 07:44:07;;;;;;;15.57;5.10;;;12.90;77.80;;;;;;5028753;28;20025;-80
2023/05/27 07:46:33;;;;;;;13.30;4.93;;;12.90;77.80;;;;;;5055978;28;20041;-78
2023/05/27 07:48:59;;;;;;;13.65;4.43;;;13.00;77.60;;;;;;5071615;28;20051;-80
2023/05/27 07:51:25;;;;;;;17.95;4.80;;;13.10;77.70;;;;;;5030781;28;20486;-80
2023/05/27 07:53:51;;;;;;;15.65;5.45;;;13.20;77.60;;;;;;5021745;28;20041;-80
2023/05/27 07:56:17;;;;;;;14.88;4.97;;;13.30;77.40;;;;;;5037994;28;20068;-79
2023/05/27 07:58:42;;;;;;;13.02;4.93;;;13.30;77.10;;;;;;5022410;28;20061;-81
2023/05/27 08:01:08;;;;;;;21.75;6.40;;;13.30;76.10;;;;;;5038227;28;20406;-79
2023/05/27 08:03:34;;;;;;;18.15;5.28;;;13.40;76.90;;;;;;5038073;28;20041;-79
2023/05/27 08:05:59;;;;;;;15.55;4.72;;;13.50;76.50;;;;;;5038428;28;20037;-82
2023/05/27 08:08:25;;;;;;;13.90;4.63;;;13.60;76.50;;;;;;5038238;28;20576;-80
2023/05/27 08:10:51;;;;;;;19.50;6.78;;;13.70;76.10;;;;;;5021168;28;20037;-78
2023/05/27 08:13:17;;;;;;;16.63;6.00;;;13.70;75.90;;;;;;5037941;28;20128;-80
2023/05/27 08:15:42;;;;;;;18.90;5.65;;;13.80;75.90;;;;;;5038095;28;20191;-82
2023/05/27 08:18:08;;;;;;;13.48;5.22;;;13.90;74.80;;;;;;5038119;28;20072;-80
2023/05/27 08:20:34;;;;;;;16.42;6.50;;;14.00;74.80;;;;;;5038015;28;20037;-81
2023/05/27 08:22:59;;;;;;;17.58;4.95;;;13.90;74.10;;;;;;5021242;28;20469;-79
2023/05/27 08:25:25;;;;;;;16.45;5.90;;;14.00;74.80;;;;;;5004139;28;20150;-80
2023/05/27 08:27:53;;;;;;;19.98;6.03;;;14.10;74.90;;;;;;5037902;28;20084;-83
2023/05/27 08:30:19;;;;;;;19.65;5.88;;;14.40;74.90;;;;;;5037903;28;20131;-78
2023/05/27 08:32:45;;;;;;;15.73;4.80;;;14.50;74.50;;;;;;5054559;28;20461;-80
2023/05/27 08:35:11;;;;;;;15.13;5.28;;;14.60;74.90;;;;;;5021459;28;20033;-79
2023/05/27 08:37:37;;;;;;;15.00;5.70;;;14.70;74.50;;;;;;5021321;28;20040;-78
2023/05/27 08:40:06;;;;;;;16.65;6.03;;;14.80;73.60;;;;;;5020626;28;20033;-80
2023/05/27 08:42:33;;;;;;;18.40;6.65;;;14.90;72.40;;;;;;5037443;28;20040;-79
2023/05/27 08:44:59;;;;;;;13.57;5.57;;;15.00;73.20;;;;;;5037389;28;20041;-81
2023/05/27 08:47:28;;;;;;;15.18;4.47;;;15.00;73.20;;;;;;5037266;28;20543;-81
2023/05/27 08:49:53;;;;;;;14.88;5.32;;;15.10;72.90;;;;;;5037202;28;20029;-80
2023/05/27 08:52:20;;;;;;;12.52;5.32;;;15.10;71.30;;;;;;5020864;28;20439;-79
2023/05/27 08:54:47;;;;;;;16.27;6.53;;;15.20;71.60;;;;;;5053673;28;20522;-80
2023/05/27 08:57:17;;;;;;;16.13;5.30;;;15.20;71.00;;;;;;5020337;28;20057;-81
2023/05/27 08:59:43;;;;;;;12.35;5.45;;;15.40;71.50;;;;;;5000866;28;20041;-82
2023/05/27 09:02:12;;;;;;;13.00;5.18;;;15.40;70.80;;;;;;5017262;28;20064;-79
2023/05/27 09:04:56;;;;;;;13.13;6.20;;;15.60;72.10;;;;;;5017303;28;20102;-82
2023/05/27 09:07:23;;;;;;;13.65;5.65;;;15.70;71.10;;;;;;5000953;28;20076;-82
2023/05/27 09:09:58;;;;;;;14.07;5.95;;;15.70;70.60;;;;;;5017281;28;20481;-81
2023/05/27 09:12:25;;;;;;;17.77;6.07;;;15.80;70.10;;;;;;5017206;28;20041;-80
2023/05/27 09:14:51;;;;;;;16.40;5.78;;;16.00;70.70;;;;;;5014985;28;20057;-78
2023/05/27 09:17:17;;;;;;;15.05;5.40;;;15.90;69.50;;;;;;5036799;28;20052;-77
2023/05/27 09:19:45;;;;;;;14.35;5.68;;;16.00;69.90;;;;;;5004130;28;20385;-78
2023/05/27 09:22:22;;;;;;;18.15;6.68;;;16.30;70.30;;;;;;5020517;28;20037;-80
2023/05/27 09:24:49;;;;;;;12.00;5.13;;;16.40;69.20;;;;;;5036802;28;20412;-78
2023/05/27 09:27:15;;;;;;;17.70;5.95;;;16.40;67.90;;;;;;5037072;28;20381;-78
2023/05/27 09:29:41;;;;;;;16.30;6.00;;;16.30;68.60;;;;;;5007437;28;20041;-81
2023/05/27 09:32:08;;;;;;;17.60;6.35;;;16.40;69.50;;;;;;5016568;28;20382;-79
2023/05/27 09:34:39;;;;;;;15.68;6.20;;;16.30;69.60;;;;;;5000473;28;20083;-81
2023/05/27 09:37:12;;;;;;;19.40;6.35;;;16.40;69.70;;;;;;5016634;28;20490;-78
2023/05/27 09:39:39;;;;;;;15.68;6.45;;;16.50;69.90;;;;;;5017349;28;20056;-79
2023/05/27 09:42:05;;;;;;;13.27;5.60;;;16.70;69.50;;;;;;5016564;28;20046;-80
2023/05/27 09:44:42;;;;;;;17.80;6.45;;;16.90;69.40;;;;;;5018655;28;20106;-79
2023/05/27 09:47:11;;;;;;;14.98;5.72;;;17.00;68.40;;;;;;5035954;28;20539;-80
2023/05/27 09:49:38;;;;;;;15.82;6.32;;;17.00;69.10;;;;;;5036423;28;20103;-78
2023/05/27 09:52:07;;;;;;;14.95;5.57;;;17.10;68.20;;;;;;5052651;28;20509;-80
2023/05/27 09:54:33;;;;;;;15.40;6.25;;;17.30;68.00;;;;;;5036067;28;20037;-79
2023/05/27 09:56:59;;;;;;;16.65;5.75;;;17.40;67.10;;;;;;5035969;28;20064;-80
2023/05/27 09:59:26;;;;;;;14.63;5.68;;;17.60;67.50;;;;;;5036080;28;20049;-81
2023/05/27 10:01:53;;;;;;;18.55;7.35;;;17.70;66.80;;;;;;5020108;28;20036;-80
2023/05/27 10:04:19;;;;;;;12.13;6.32;;;17.60;66.50;;;;;;5036166;28;20045;-81
2023/05/27 10:06:46;;;;;;;17.65;5.90;;;17.70;66.50;;;;;;5019189;28;20055;-81
2023/05/27 10:09:13;;;;;;;16.02;5.75;;;17.60;66.50;;;;;;5035687;28;20041;-80
2023/05/27 10:11:40;;;;;;;17.35;5.95;;;17.70;66.90;;;;;;5019045;28;20057;-82
2023/05/27 10:14:06;;;;;;;16.98;6.70;;;17.80;66.70;;;;;;5018946;28;20595;-81
2023/05/27 10:16:34;;;;;;;20.65;7.03;;;18.00;66.30;;;;;;5015475;28;20034;-81
2023/05/27 10:19:00;;;;;;;20.20;6.25;;;18.20;65.80;;;;;;5014890;28;20702;-81
2023/05/27 10:21:28;;;;;;;17.40;6.70;;;18.40;65.90;;;;;;4999290;28;20042;-81
2023/05/27 10:23:59;;;;;;;16.10;5.88;;;18.50;65.00;;;;;;4999274;28;20048;-81
2023/05/27 10:27:00;;;;;;;15.30;6.25;;;18.60;64.60;;;;;;5019690;28;20036;-81
2023/05/27 10:29:39;;;;;;;22.17;7.45;;;18.90;65.30;;;;;;5019846;28;20040;-80
2023/05/27 10:32:05;;;;;;;16.75;6.78;;;19.00;64.90;;;;;;5033249;28;20044;-80
2023/05/27 10:34:41;;;;;;;15.27;6.00;;;19.10;64.10;;;;;;5035516;28;20044;-79
2023/05/27 10:37:07;;;;;;;11.73;6.07;;;19.10;63.00;;;;;;5035563;28;20120;-82
2023/05/27 10:39:33;;;;;;;16.48;6.40;;;19.00;60.50;;;;;;5035647;28;20120;-81
2023/05/27 10:41:59;;;;;;;15.63;6.28;;;18.90;62.20;;;;;;5035141;28;20080;-82
2023/05/27 10:44:32;;;;;;;15.52;6.90;;;19.10;62.70;;;;;;5034722;28;20156;-82
2023/05/27 10:47:03;;;;;;;13.68;5.78;;;19.20;62.80;;;;;;5035536;28;20044;-81
2023/05/27 10:49:35;;;;;;;15.68;6.75;;;19.40;62.40;;;;;;5035146;28;20045;-81
2023/05/27 10:52:17;;;;;;;18.33;6.47;;;19.50;62.00;;;;;;5018878;28;20044;-82
2023/05/27 10:54:46;;;;;;;17.23;7.38;;;19.60;61.30;;;;;;5034618;28;20041;-81
2023/05/27 10:57:13;;;;;;;18.08;6.68;;;19.80;60.70;;;;;;5035594;28;20084;-81
2023/05/27 10:59:53;;;;;;;16.50;7.03;;;19.80;60.20;;;;;;5018668;28;20041;-81
2023/05/27 11:02:20;;;;;;;19.65;7.40;;;19.90;59.90;;;;;;5035545;28;20080;-80
2023/05/27 11:04:48;;;;;;;15.50;6.43;;;20.00;60.40;;;;;;5031957;28;20045;-80
2023/05/27 11:07:18;;;;;;;15.45;6.15;;;20.20;60.90;;;;;;4999013;28;20041;-80
2023/05/27 11:09:44;;;;;;;14.75;6.18;;;20.30;60.90;;;;;;4999020;28;20042;-80
2023/05/27 11:12:16;;;;;;;13.05;5.93;;;20.40;60.80;;;;;;5015213;28;20102;-80
2023/05/27 11:14:43;;;;;;;14.27;6.68;;;20.60;60.40;;;;;;5031813;28;20046;-80
2023/05/27 11:17:12;;;;;;;14.82;6.25;;;20.40;58.70;;;;;;4999139;28;20114;-82
2023/05/27 11:19:42;;;;;;;18.98;6.70;;;20.40;57.30;;;;;;4982516;28;20076;-81
2023/05/27 11:22:09;;;;;;;15.35;6.00;;;20.60;58.50;;;;;;4983441;28;20548;-80
2023/05/27 11:24:39;;;;;;;15.13;6.18;;;20.80;58.10;;;;;;4999172;28;20045;-82
2023/05/27 11:27:13;;;;;;;12.73;6.00;;;20.80;57.50;;;;;;4983174;28;20048;-80
2023/05/27 11:29:48;;;;;;;14.57;6.03;;;20.90;55.40;;;;;;5000415;28;20114;-82
2023/05/27 11:32:16;;;;;;;13.13;6.70;;;21.10;57.40;;;;;;5002853;28;20456;-81
2023/05/27 11:34:44;;;;;;;16.98;7.18;;;21.30;56.80;;;;;;5002252;28;20044;-84
2023/05/27 11:37:11;;;;;;;17.52;6.47;;;21.50;56.70;;;;;;5018274;28;20041;-80
2023/05/27 11:39:37;;;;;;;17.42;6.68;;;21.50;56.70;;;;;;5002537;28;20108;-79
2023/05/27 11:42:08;;;;;;;17.30;6.88;;;21.50;55.90;;;;;;5018382;28;20041;-79
2023/05/27 11:44:34;;;;;;;12.27;6.47;;;21.60;56.10;;;;;;5018482;28;20045;-80
2023/05/27 11:47:00;;;;;;;14.68;7.03;;;21.40;54.20;;;;;;5018423;28;20046;-79
2023/05/27 11:49:28;;;;;;;10.93;6.70;;;21.20;54.90;;;;;;5018530;28;20041;-81
2023/05/27 11:51:58;;;;;;;13.40;6.63;;;21.10;54.50;;;;;;5018562;28;20394;-79
2023/05/27 11:54:28;;;;;;;18.00;7.45;;;21.00;55.50;;;;;;5030896;28;20044;-80
2023/05/27 11:56:55;;;;;;;22.90;7.95;;;21.30;56.20;;;;;;5034636;28;20050;-80
2023/05/27 11:59:22;;;;;;;19.20;7.55;;;21.50;56.20;;;;;;5002264;28;20069;-80
2023/05/27 12:01:49;;;;;;;18.88;8.98;;;21.70;55.60;;;;;;5018620;28;20045;-82
2023/05/27 12:04:15;;;;;;;16.10;7.90;;;21.50;54.60;;;;;;5018252;28;20096;-80
2023/05/27 12:06:42;;;;;;;15.35;7.35;;;21.70;55.70;;;;;;5034769;28;20452;-80
2023/05/27 12:09:09;;;;;;;15.15;7.18;;;21.80;55.10;;;;;;5034396;28;20049;-80
2023/05/27 12:11:35;;;;;;;14.00;7.15;;;22.00;53.50;;;;;;4999570;28;20087;-80
2023/05/27 12:14:01;;;;;;;17.92;7.88;;;22.00;54.20;;;;;;5014349;28;20046;-80
2023/05/27 12:16:27;;;;;;;20.70;8.98;;;22.10;54.30;;;;;;4998200;28;20482;-80
2023/05/27 12:18:53;;;;;;;16.20;7.13;;;22.00;54.10;;;;;;5014727;28;20049;-80
2023/05/27 12:21:19;;;;;;;17.35;8.10;;;22.20;54.20;;;;;;4998168;28;20038;-80
2023/05/27 12:23:45;;;;;;;21.33;8.68;;;22.40;54.40;;;;;;4998086;28;20163;-80
2023/05/27 12:26:13;;;;;;;16.92;6.93;;;22.40;54.00;;;;;;4997947;28;20505;-79
2023/05/27 12:28:39;;;;;;;18.02;7.85;;;22.50;53.30;;;;;;5029550;28;20113;-79
2023/05/27 12:31:05;;;;;;;16.67;7.63;;;22.50;53.60;;;;;;5034387;28;20048;-80
2023/05/27 12:33:31;;;;;;;16.70;8.35;;;22.60;54.20;;;;;;5033955;28;20132;-80
2023/05/27 12:35:57;;;;;;;15.38;7.50;;;22.60;54.00;;;;;;5034211;28;20887;-79
2023/05/27 12:38:23;;;;;;;16.10;8.80;;;22.70;54.80;;;;;;5034265;28;20045;-78
2023/05/27 12:40:49;;;;;;;16.02;8.15;;;22.90;54.00;;;;;;5033658;28;20048;-79